Surface observations / UK / EGOM

Quebec | Canada | USA | France | UK | Europe | Elsewhere

Display: Info & Location for EGOM | Help decoding METAR


Raw surface observations for station EGOM
EGOM 301850Z AUTO 25009KT 9999 BKN015/// BKN100/// M01/M01 Q0974=
EGOM 301750Z AUTO 26012KT 9999 FEW016/// M01/M01 Q0974=
EGOM 301650Z AUTO 27013KT 9999 SCT015/// M01/M01 Q0974 REDZ=
EGOM 301550Z AUTO 27014KT 9999 BKN021/// M00/M00 Q0974=
EGOM 301450Z AUTO 27015KT 9999 BKN023/// M00/M00 Q0974=
EGOM 301350Z AUTO 27012KT 9999 FEW020/// M00/M00 Q0974=
EGOM 301250Z 26012KT CAVOK M00/M00 Q0975 BLU=
EGOM 301150Z 25010KT 9999 FEW001 M01/M01 Q0975 BLU=
EGOM 301050Z 23009KT 0200 FZFG VV/// M01/M01 Q0976 RED=
EGOM 300950Z 27011KT 9999 FEW002 M01/M01 Q0976 BLU=
EGOM 300850Z 27012KT 9999 FEW003 SCT140 M01/M01 Q0976 BLU=
EGOM 300750Z AUTO 25011KT 9999 BKN004/// SCT210/// M02/M02 Q0976=
EGOM 300650Z AUTO 26013KT 9999 FEW001/// SCT005/// BKN210/// M02/M02 Q0975=
EGOM 300550Z AUTO 25013KT 4400 BR FEW001/// SCT080/// M03/M03 Q0974 REDZ=
EGOM 300450Z AUTO 26013KT 9000 BR FEW050/// BKN080/// M04/M04 Q0974=
EGOM 300350Z AUTO 22008KT 9999 FEW001/// OVC050/// M04/M04 Q0974=
EGOM 300250Z AUTO 25010KT 9999 BKN080/// M04/M04 Q0973=
EGOM 300150Z AUTO 30005KT 9999 FEW130/// M05/M06 Q0973=
EGOM 300050Z AUTO 29003KT 9999 NCD M05/M05 Q0972=
EGOM 292350Z AUTO 33007KT 9999 NCD M05/M05 Q0972=
EGOM 292250Z AUTO 32005KT 0100 FZFG BKN001/// M04/M04 Q0971=
EGOM 292150Z AUTO 28005KT 9999 FEW003/// BKN012/// M02/M02 Q0971=
EGOM 292050Z AUTO 26010KT 9999 BKN150/// M03/M03 Q0972=
EGOM 291950Z AUTO 25005KT 9999 NCD M03/M03 Q0972=